Latest Coastal Weather Observations for Parndana

IDS60701

Issued at 2:15 am CDT Thursday 23 October 2014 (issued every 10 minutes, with the page automatically refreshed every 10 minutes)

About coastal observations | Map of coastal stations | Coastal observations for SA | Marine services | Other Formats
Station Details ID: 022843 Name: PARNDANA CFS AWS Lat: -35.79 Lon: 137.25 Height: 165.0 m
Data from the previous 72 hours. | See also: Recent months at Parndana
Date/Time
CDT
Temp

°C
Wind Pressure Rain
since 9am
mm
Weather Cloud Vis
km
Sea
Height
m
Swell
Dir
 
Speed
knots
Gust
knots
hPa Trend Height
m
Period
s
Dir
23/02:00am 12.4 SSE 11 15 - - 0.0 - - - - - - -
23/01:30am 12.4 SSE 11 16 - - 0.0 - - - - - - -
23/01:00am 12.4 SSE 14 18 - - 0.0 - - - - - - -
23/12:30am 12.3 SSE 11 15 - - 0.0 - - - - - - -
23/12:00am 12.4 SSE 12 16 - - 0.0 - - - - - - -
 
Date/Time
CDT
Temp

°C
Wind Pressure Rain
since 9am
mm
Weather Cloud Vis
km
Sea
Height
m
Swell
Dir
 
Speed
knots
Gust
knots
hPa Trend Height
m
Period
s
Dir
22/11:30pm 12.3 SSE 14 18 - - 0.0 - - - - - - -
22/11:00pm 12.2 SSE 13 18 - - 0.0 - - - - - - -
22/10:30pm 12.3 SSE 12 17 - - 0.0 - - - - - - -
22/10:00pm 12.3 SSE 12 15 - - 0.0 - - - - - - -
22/09:30pm 12.5 SSE 12 15 - - 0.0 - - - - - - -
22/09:00pm 12.7 SSE 13 18 - - 0.0 - - - - - - -
22/08:30pm 12.7 SSE 13 17 - - 0.0 - - - - - - -
22/08:00pm 12.9 SSE 14 17 - - 0.0 - - - - - - -
22/07:30pm 13.0 S 13 19 - - 0.0 - - - - - - -
22/07:00pm 13.3 S 12 17 - - 0.0 - - - - - - -
22/06:30pm 13.8 S 15 21 - - 0.0 - - - - - - -
22/06:00pm 14.2 S 16 21 - - 0.0 - - - - - - -
22/05:30pm 14.8 S 16 20 - - 0.0 - - - - - - -
22/05:00pm 15.3 S 15 21 - - 0.0 - - - - - - -
22/04:30pm 14.6 S 16 23 - - 0.0 - - - - - - -
22/04:00pm 14.6 S 14 20 - - 0.0 - - - - - - -
22/03:30pm 14.7 S 16 22 - - 0.0 - - - - - - -
22/03:00pm 14.9 S 15 20 - - 0.0 - - - - - - -
22/02:30pm 15.5 S 14 19 - - 0.0 - - - - - - -
22/02:00pm 14.8 S 14 19 - - 0.0 - - - - - - -
22/01:30pm 14.8 S 15 20 - - 0.0 - - - - - - -
22/01:00pm 14.8 S 14 19 - - 0.0 - - - - - - -
22/12:30pm 15.1 S 15 21 - - 0.0 - - - - - - -
22/12:00pm 14.4 S 15 21 - - 0.0 - - - - - - -
22/11:30am 14.3 S 17 22 - - 0.0 - - - - - - -
22/11:00am 14.3 SSW 16 23 - - 0.0 - - - - - - -
22/10:30am 15.7 S 18 23 - - 0.0 - - - - - - -
22/10:00am 16.6 S 14 20 - - 0.0 - - - - - - -
22/09:30am 15.7 SSW 14 19 - - 0.0 - - - - - - -
22/09:00am 15.7 SSW 15 19 - - 0.0 - - - - - - -
22/08:30am 14.8 SSW 14 21 - - 0.0 - - - - - - -
22/08:00am 13.9 SSW 16 23 - - 0.0 - - - - - - -
22/07:30am 13.4 SSW 14 21 - - 0.0 - - - - - - -
22/07:00am 13.2 SSW 13 17 - - 0.0 - - - - - - -
22/06:30am 13.3 SSW 12 17 - - 0.0 - - - - - - -
22/06:00am 13.4 SSW 11 16 - - 0.0 - - - - - - -
22/05:30am 13.6 SSW 10 14 - - 0.0 - - - - - - -
22/05:00am 14.2 SSW 10 15 - - 0.0 - - - - - - -
22/04:30am 14.9 S 10 14 - - 0.0 - - - - - - -
22/04:00am 15.1 SSW 11 14 - - 0.0 - - - - - - -
22/03:30am 15.3 SSW 12 15 - - 0.0 - - - - - - -
22/03:00am 15.7 SSW 13 17 - - 0.0 - - - - - - -
22/02:30am 16.3 SSW 12 16 - - 0.0 - - - - - - -
22/02:00am 18.0 SW 13 18 - - 0.0 - - - - - - -
22/01:30am 18.5 SW 12 17 - - 0.0 - - - - - - -
22/01:00am 18.9 E 8 11 - - 0.0 - - - - - - -
22/12:30am 17.4 ENE 6 10 - - 0.0 - - - - - - -
22/12:00am 18.3 E 6 9 - - 0.0 - - - - - - -
 
Date/Time
CDT
Temp

°C
Wind Pressure Rain
since 9am
mm
Weather Cloud Vis
km
Sea
Height
m
Swell
Dir
 
Speed
knots
Gust
knots
hPa Trend Height
m
Period
s
Dir
21/11:30pm 19.9 S 9 14 - - 0.0 - - - - - - -
21/11:00pm 19.1 SW 6 8 - - 0.0 - - - - - - -
21/10:30pm 18.1 SSW 8 10 - - 0.0 - - - - - - -
21/10:00pm 18.9 SSW 14 18 - - 0.0 - - - - - - -
21/09:30pm 19.8 S 10 12 - - 0.0 - - - - - - -
21/09:00pm 21.6 SSW 10 14 - - 0.0 - - - - - - -
21/08:30pm 22.3 S 5 7 - - 0.0 - - - - - - -
21/08:00pm 25.7 NNE 4 5 - - 0.0 - - - - - - -
21/07:30pm 27.2 N 4 4 - - 0.0 - - - - - - -
21/07:00pm 26.9 NNW 5 6 - - 0.0 - - - - - - -
21/06:30pm 27.2 NNW 5 7 - - 0.0 - - - - - - -
21/06:00pm 29.1 N 6 8 - - 0.0 - - - - - - -
21/05:30pm 30.9 N 6 9 - - 0.0 - - - - - - -
21/05:00pm 30.6 N 7 10 - - 0.0 - - - - - - -
21/04:30pm 30.3 NNW 7 9 - - 0.0 - - - - - - -
21/04:00pm 30.6 NNW 9 14 - - 0.0 - - - - - - -
21/03:30pm 31.2 NNW 11 17 - - 0.0 - - - - - - -
21/03:00pm 32.9 N 10 14 - - 0.0 - - - - - - -
21/02:30pm 32.5 NNW 12 16 - - 0.0 - - - - - - -
21/02:00pm 31.6 N 11 18 - - 0.0 - - - - - - -
21/01:30pm 31.3 N 10 16 - - 0.0 - - - - - - -
21/01:00pm 30.1 N 11 15 - - 0.0 - - - - - - -
21/12:30pm 28.1 NNE 11 14 - - 0.0 - - - - - - -
21/12:00pm 25.6 NNE 11 15 - - 0.0 - - - - - - -
21/11:30am 24.4 NNE 10 15 - - 0.0 - - - - - - -
21/11:00am 23.9 NNE 11 14 - - 0.0 - - - - - - -
21/10:30am 23.9 NNE 13 18 - - 0.0 - - - - - - -
21/10:00am 24.0 NNE 12 19 - - 0.0 - - - - - - -
21/09:30am 23.8 N 13 18 - - 0.0 - - - - - - -
21/09:00am 21.9 NNE 10 16 - - 0.0 - - - - - - -
21/08:30am 22.0 NNE 11 15 - - 0.0 - - - - - - -
21/08:00am 20.7 NNE 11 16 - - 0.0 - - - - - - -
21/07:30am 20.1 NNE 11 16 - - 0.0 - - - - - - -
21/07:00am 19.1 NNE 10 14 - - 0.0 - - - - - - -
21/06:30am 18.0 NNE 7 10 - - 0.0 - - - - - - -
21/06:00am 18.1 NNE 8 12 - - 0.0 - - - - - - -
21/05:30am 17.4 NE 8 12 - - 0.0 - - - - - - -
21/05:00am 16.1 NE 7 10 - - 0.0 - - - - - - -
21/04:30am 15.9 NE 8 10 - - 0.0 - - - - - - -
21/04:00am 14.1 NE 8 10 - - 0.0 - - - - - - -
21/03:30am 12.9 NE 6 9 - - 0.0 - - - - - - -
21/03:00am 11.7 E 2 2 - - 0.0 - - - - - - -
21/02:30am 11.6 ENE 2 4 - - 0.0 - - - - - - -
21/02:00am 12.1 CALM 0 0 - - 0.0 - - - - - - -
21/01:30am 11.9 SSE 2 3 - - 0.0 - - - - - - -
21/01:00am 12.5 ESE 2 5 - - 0.0 - - - - - - -
21/12:30am 12.6 ESE 2 3 - - 0.0 - - - - - - -
21/12:00am 14.5 E 8 14 - - 0.0 - - - - - - -
 
Date/Time
CDT
Temp

°C
Wind Pressure Rain
since 9am
mm
Weather Cloud Vis
km
Sea
Height
m
Swell
Dir
 
Speed
knots
Gust
knots
hPa Trend Height
m
Period
s
Dir
20/11:30pm 13.0 E 6 7 - - 0.0 - - - - - - -
20/11:00pm 13.4 E 7 9 - - 0.0 - - - - - - -
20/10:30pm 14.0 E 10 12 - - 0.0 - - - - - - -
20/10:00pm 13.5 E 10 13 - - 0.0 - - - - - - -
20/09:30pm 13.1 E 9 11 - - 0.0 - - - - - - -
20/09:00pm 13.0 ESE 8 11 - - 0.0 - - - - - - -
20/08:30pm 12.8 ESE 9 11 - - 0.0 - - - - - - -
20/08:00pm 13.1 ESE 7 9 - - 0.0 - - - - - - -
20/07:30pm 13.8 ESE 7 9 - - 0.0 - - - - - - -
20/07:00pm 15.2 ESE 8 11 - - 0.0 - - - - - - -
20/06:30pm 16.0 ESE 10 12 - - 0.0 - - - - - - -
20/06:00pm 17.3 E 9 12 - - 0.0 - - - - - - -
20/05:30pm 17.7 ESE 10 13 - - 0.0 - - - - - - -
20/05:00pm 18.1 ESE 11 15 - - 0.0 - - - - - - -
20/04:30pm 18.7 ESE 10 14 - - 0.0 - - - - - - -
20/04:00pm 18.4 ESE 12 15 - - 0.0 - - - - - - -
20/03:30pm 18.6 ESE 12 15 - - 0.0 - - - - - - -
20/03:00pm 18.0 ESE 12 15 - - 0.0 - - - - - - -
20/02:30pm 18.2 ESE 12 16 - - 0.0 - - - - - - -
20/02:00pm 18.7 ESE 12 16 - - 0.0 - - - - - - -
20/01:30pm 18.1 ESE 12 16 - - 0.0 - - - - - - -
20/01:00pm 17.0 ESE 12 16 - - 0.0 - - - - - - -
20/12:30pm 16.8 ESE 11 14 - - 0.0 - - - - - - -
20/12:00pm 16.1 ESE 11 14 - - 0.0 - - - - - - -
20/11:30am 15.7 ESE 13 17 - - 0.0 - - - - - - -
20/11:00am 16.2 ESE 13 17 - - 0.0 - - - - - - -
20/10:30am 15.9 ESE 14 19 - - 0.0 - - - - - - -
20/10:00am 15.2 E 15 20 - - 0.0 - - - - - - -
20/09:30am 15.1 E 13 19 - - 0.0 - - - - - - -
20/09:00am 13.8 ESE 15 20 - - 0.2 - - - - - - -
20/08:30am 12.7 ESE 18 24 - - 0.2 - - - - - - -
20/08:00am 12.3 ESE 15 23 - - 0.2 - - - - - - -
20/07:30am 12.1 ESE 16 24 - - 0.2 - - - - - - -
20/07:00am 11.9 ESE 17 24 - - 0.2 - - - - - - -
20/06:30am 11.8 E 15 26 - - 0.2 - - - - - - -
20/06:00am 11.9 ESE 16 22 - - 0.2 - - - - - - -
20/05:30am 12.0 ESE 17 29 - - 0.2 - - - - - - -
20/05:28am 12.0 ESE 16 29 - - 0.2 - - - - - - -
20/05:00am 12.1 ESE 15 21 - - 0.2 - - - - - - -
20/04:30am 12.1 ESE 17 27 - - 0.2 - - - - - - -
20/04:15am 12.2 ESE 16 27 - - 0.2 - - - - - - -
20/04:00am 12.2 ESE 15 22 - - 0.2 - - - - - - -
20/03:30am 12.4 ESE 19 27 - - 0.2 - - - - - - -
20/03:00am 12.4 ESE 15 21 - - 0.2 - - - - - - -
20/02:30am 12.3 ESE 17 22 - - 0.2 - - - - - - -

Other Formats:

Comma delimited format used in spreadsheet applications
http://www.bom.gov.au/fwo/IDS60701/IDS60701.94807.axf

JavaScript Object Notation format (JSON) in row-major order
http://www.bom.gov.au/fwo/IDS60701/IDS60701.94807.json